Time;durP1;ratioP1;P1;durP2;ratioP2;P2;SDS_P1;SDS_P2;PMS_P1;PMS_P2;Temp;Humidity;BMP_temperature;BMP_pressure;BME280_temperature;BME280_humidity;BME280_pressure;Samples;Min_cycle;Max_cycle;Signal;HPM_P1;HPM_P2
2022/10/30 00:02:10;;;;;;;;;15.50;12.25;;;;;18.80;55.13;101330.69;6217281;22;45187;-74
2022/10/30 00:04:35;;;;;;;;;14.50;13.25;;;;;18.80;55.34;101336.03;6217348;22;45229;-74
2022/10/30 00:07:00;;;;;;;;;14.25;10.25;;;;;18.73;54.88;101339.75;6217604;22;45165;-74
2022/10/30 00:09:26;;;;;;;;;14.00;13.25;;;;;18.70;55.35;101337.16;6190275;22;45181;-74
2022/10/30 00:11:51;;;;;;;;;11.00;11.00;;;;;18.61;55.54;101332.97;6217630;22;45162;-74
2022/10/30 00:14:17;;;;;;;;;22.75;20.00;;;;;18.61;55.27;101337.44;6217480;22;46259;-74
2022/10/30 00:16:42;;;;;;;;;21.00;17.50;;;;;18.53;55.37;101329.66;6190012;22;45312;-74
2022/10/30 00:19:07;;;;;;;;;17.00;15.75;;;;;18.61;55.87;101340.97;6217566;22;45329;-74
2022/10/30 00:21:33;;;;;;;;;18.75;17.00;;;;;18.58;55.80;101334.81;6217583;22;45098;-73
2022/10/30 00:23:58;;;;;;;;;16.50;15.00;;;;;18.49;55.78;101320.84;6217320;22;46242;-74
2022/10/30 00:26:24;;;;;;;;;32.50;31.50;;;;;18.56;55.94;101337.56;6217588;22;45145;-75
2022/10/30 00:28:52;;;;;;;;;25.25;24.75;;;;;18.48;55.72;101320.88;6217692;22;45439;-73
2022/10/30 00:31:17;;;;;;;;;18.50;17.75;;;;;18.54;55.91;101334.06;6217291;22;45417;-74
2022/10/30 00:33:43;;;;;;;;;30.00;28.75;;;;;18.47;56.17;101324.44;6190017;22;46910;-74
2022/10/30 00:36:08;;;;;;;;;29.00;27.00;;;;;18.43;55.65;101314.81;6217420;22;45448;-74
2022/10/30 00:38:34;;;;;;;;;28.50;23.75;;;;;18.35;56.12;101311.47;6217670;22;45458;-74
2022/10/30 00:40:59;;;;;;;;;18.50;15.00;;;;;18.39;55.89;101321.13;6217490;22;45214;-74
2022/10/30 00:43:36;;;;;;;;;19.00;18.25;;;;;18.41;56.18;101335.28;6217146;22;46074;-74
2022/10/30 00:46:13;;;;;;;;;21.75;17.00;;;;;18.27;56.80;101315.22;6189925;22;45217;-74
2022/10/30 00:48:40;;;;;;;;;12.50;11.00;;;;;18.30;56.63;101336.44;6217310;22;45157;-74
2022/10/30 00:51:09;;;;;;;;;18.25;16.50;;;;;18.24;56.90;101333.94;6189852;22;45476;-74
2022/10/30 00:53:34;;;;;;;;;14.67;13.00;;;;;18.21;56.75;101338.50;6216775;22;45572;-74
2022/10/30 00:56:04;;;;;;;;;14.67;13.00;;;;;18.25;57.32;101345.47;6217373;22;45336;-74
2022/10/30 00:58:34;;;;;;;;;14.25;13.25;;;;;18.12;57.35;101323.59;6217711;22;45365;-74
2022/10/30 01:01:05;;;;;;;;;16.25;15.50;;;;;18.16;57.24;101335.06;6217022;22;45273;-74
2022/10/30 01:03:32;;;;;;;;;14.00;12.25;;;;;18.14;57.36;101334.22;6217023;22;45241;-74
2022/10/30 01:06:01;;;;;;;;;13.75;12.25;;;;;18.12;57.34;101330.72;6217679;22;45423;-74
2022/10/30 01:08:27;;;;;;;;;11.50;10.50;;;;;18.16;57.62;101340.41;6216898;22;45210;-73
2022/10/30 01:10:53;;;;;;;;;13.00;11.67;;;;;18.22;57.45;101345.56;6217380;22;45115;-74
2022/10/30 01:13:21;;;;;;;;;14.00;12.50;;;;;18.20;57.79;101347.38;6217159;22;45597;-74
2022/10/30 01:15:55;;;;;;;;;25.50;24.00;;;;;18.10;57.84;101330.78;6217217;22;45315;-74
2022/10/30 01:18:38;;;;;;;;;29.25;22.25;;;;;18.23;57.61;101344.63;6217327;22;45344;-74
2022/10/30 01:21:06;;;;;;;;;26.75;18.25;;;;;18.18;57.44;101344.78;6216816;22;45155;-74
2022/10/30 01:23:45;;;;;;;;;17.50;16.75;;;;;18.05;57.65;101325.56;6216808;22;45331;-74
2022/10/30 01:26:17;;;;;;;;;16.00;14.00;;;;;18.12;57.87;101336.91;6217252;22;45330;-74
2022/10/30 01:29:12;;;;;;;;;13.75;12.75;;;;;18.16;57.59;101354.59;6217387;22;45367;-74
2022/10/30 01:31:47;;;;;;;;;13.00;12.00;;;;;18.14;58.05;101356.41;6217096;22;45392;-74
2022/10/30 01:34:54;;;;;;;;;31.50;30.00;;;;;18.12;58.30;101342.25;6217010;22;45376;-74
2022/10/30 01:37:51;;;;;;;;;31.25;25.75;;;;;18.00;58.08;101331.91;6217386;22;45256;-74
2022/10/30 01:40:17;;;;;;;;;25.25;25.00;;;;;17.95;58.15;101321.38;6202821;22;45083;-74
2022/10/30 01:42:54;;;;;;;;;26.75;25.25;;;;;17.94;58.26;101324.97;6216988;22;45106;-73
2022/10/30 01:45:53;;;;;;;;;20.75;18.50;;;;;18.00;58.50;101337.25;6189692;22;47323;-74
2022/10/30 01:48:46;;;;;;;;;16.50;16.50;;;;;17.98;58.57;101336.41;6217099;22;45197;-74
2022/10/30 01:51:33;;;;;;;;;32.50;26.00;;;;;17.87;58.52;101323.34;6217320;22;45476;-74
2022/10/30 01:54:14;;;;;;;;;22.75;17.00;;;;;17.91;58.21;101326.81;6216894;22;45346;-73
2022/10/30 01:57:11;;;;;;;;;19.50;17.25;;;;;17.83;58.74;101316.38;6217148;22;45449;-74
2022/10/30 01:59:39;;;;;;;;;26.25;24.00;;;;;17.84;58.79;101312.78;6216670;22;45233;-74
2022/10/30 02:02:05;;;;;;;;;32.00;29.25;;;;;17.80;58.71;101308.44;6189193;22;45303;-74
2022/10/30 02:04:31;;;;;;;;;15.75;14.75;;;;;17.87;58.77;101326.00;6189747;22;45484;-75
2022/10/30 02:06:57;;;;;;;;;14.75;13.75;;;;;17.87;58.86;101323.34;6216843;22;45281;-74
2022/10/30 02:09:24;;;;;;;;;14.50;13.75;;;;;17.82;59.33;101309.28;6216769;22;45177;-74
2022/10/30 02:11:52;;;;;;;;;14.67;14.67;;;;;17.92;59.34;101320.59;6217526;22;45153;-73
2022/10/30 02:14:23;;;;;;;;;14.00;13.50;;;;;17.91;59.71;101306.41;6189273;22;45388;-74
2022/10/30 02:16:51;;;;;;;;;15.75;12.75;;;;;17.85;59.50;101294.09;6216573;22;45452;-74
2022/10/30 02:19:17;;;;;;;;;15.25;13.75;;;;;17.92;59.53;101291.28;6188239;22;45500;-74
2022/10/30 02:21:43;;;;;;;;;11.75;11.50;;;;;18.01;59.03;101299.03;6189590;22;45308;-74
2022/10/30 02:24:08;;;;;;;;;12.75;11.50;;;;;18.09;59.53;101307.69;6216961;22;45274;-74
2022/10/30 02:26:33;;;;;;;;;13.00;13.00;;;;;18.09;58.82;101307.69;6189700;22;47150;-74
2022/10/30 02:28:59;;;;;;;;;21.50;20.00;;;;;18.17;59.09;101304.84;6189706;22;45397;-74
2022/10/30 02:31:24;;;;;;;;;27.00;24.75;;;;;18.23;59.07;101308.22;6217206;22;45321;-74
2022/10/30 02:33:50;;;;;;;;;17.50;14.00;;;;;18.22;59.10;101302.91;6217086;22;45260;-74
2022/10/30 02:36:15;;;;;;;;;15.33;12.00;;;;;18.28;58.78;101297.41;6217231;22;46479;-74
2022/10/30 02:38:41;;;;;;;;;10.75;9.25;;;;;18.30;58.74;101299.13;6216985;22;45212;-74
2022/10/30 02:41:07;;;;;;;;;12.00;10.50;;;;;18.34;58.69;101310.59;6217220;22;45193;-74
2022/10/30 02:43:32;;;;;;;;;14.00;12.00;;;;;18.34;58.06;101302.59;6189713;22;45583;-74
2022/10/30 02:45:58;;;;;;;;;11.33;11.33;;;;;18.28;58.56;101297.41;6189313;22;47139;-74
2022/10/30 02:48:23;;;;;;;;;17.25;13.50;;;;;18.33;58.55;101303.50;6217025;22;45175;-74
2022/10/30 02:50:49;;;;;;;;;15.50;13.50;;;;;18.28;58.51;101295.66;6189946;22;45840;-74
2022/10/30 02:53:14;;;;;;;;;12.00;10.00;;;;;18.26;58.14;101288.63;6189358;22;45438;-74
2022/10/30 02:55:39;;;;;;;;;15.50;13.00;;;;;18.26;58.55;101294.81;6216678;22;45358;-74
2022/10/30 02:58:05;;;;;;;;;11.00;10.00;;;;;18.24;58.27;101301.09;6216976;22;45193;-74
2022/10/30 03:00:30;;;;;;;;;15.75;12.00;;;;;18.21;58.42;101293.19;6190216;22;45357;-73
2022/10/30 03:02:56;;;;;;;;;26.00;21.00;;;;;18.21;58.52;101306.53;6216473;22;45380;-74
2022/10/30 03:05:22;;;;;;;;;15.75;14.75;;;;;18.13;58.33;101306.72;6216547;22;45511;-74
2022/10/30 03:07:47;;;;;;;;;14.50;14.50;;;;;18.16;58.58;101308.44;6216739;22;45366;-74
2022/10/30 03:10:13;;;;;;;;;20.00;15.75;;;;;18.14;58.89;101312.91;6217100;22;45257;-74
2022/10/30 03:12:39;;;;;;;;;17.00;13.00;;;;;18.06;59.05;101300.66;6217092;22;45316;-74
2022/10/30 03:15:05;;;;;;;;;14.33;14.00;;;;;18.04;59.41;101297.19;6190272;22;47125;-74
2022/10/30 03:17:30;;;;;;;;;14.25;14.00;;;;;18.01;59.57;101289.22;6217649;22;45275;-74
2022/10/30 03:19:55;;;;;;;;;12.50;11.50;;;;;18.00;59.33;101292.81;6217774;22;45152;-73
2022/10/30 03:22:21;;;;;;;;;13.50;12.00;;;;;17.97;59.49;101290.25;6190511;22;45351;-76
2022/10/30 03:24:46;;;;;;;;;15.25;14.25;;;;;17.96;59.42;101291.16;6217600;22;46332;-76
2022/10/30 03:27:11;;;;;;;;;14.75;14.75;;;;;17.94;59.58;101298.31;6218193;22;45166;-76
2022/10/30 03:29:37;;;;;;;;;16.25;16.00;;;;;17.90;59.91;101291.31;6218073;22;45338;-77
2022/10/30 03:32:02;;;;;;;;;13.50;12.50;;;;;17.89;59.76;101291.38;6190371;22;45144;-76
2022/10/30 03:34:27;;;;;;;;;14.25;14.25;;;;;17.83;60.12;101285.28;6218012;22;45712;-76
2022/10/30 03:36:53;;;;;;;;;16.50;13.50;;;;;17.78;60.17;101281.81;6190691;22;45177;-76
2022/10/30 03:39:19;;;;;;;;;15.75;15.75;;;;;17.74;60.60;101273.94;6218006;22;45150;-76
2022/10/30 03:41:44;;;;;;;;;16.00;15.00;;;;;17.79;60.29;101280.06;6190572;22;45182;-76
2022/10/30 03:44:09;;;;;;;;;16.50;16.00;;;;;17.68;60.33;101279.41;6217860;22;45328;-76
2022/10/30 03:46:35;;;;;;;;;18.75;16.00;;;;;17.62;60.77;101275.13;6189891;22;45151;-76
2022/10/30 03:49:00;;;;;;;;;16.50;15.25;;;;;17.63;60.86;101267.06;6190674;22;45163;-77
2022/10/30 03:51:25;;;;;;;;;16.25;15.00;;;;;17.64;61.07;101275.94;6217917;22;45261;-76
2022/10/30 03:53:51;;;;;;;;;18.75;16.25;;;;;17.65;61.28;101275.03;6190327;22;46618;-76
2022/10/30 03:56:18;;;;;;;;;18.50;15.00;;;;;17.56;61.30;101269.91;6217820;22;45308;-76
2022/10/30 03:58:44;;;;;;;;;15.75;14.50;;;;;17.53;61.20;101268.19;6190487;22;45219;-76
2022/10/30 04:01:09;;;;;;;;;19.00;16.00;;;;;17.52;61.20;101255.81;6217390;22;45214;-76
2022/10/30 04:03:35;;;;;;;;;21.25;16.00;;;;;17.50;61.48;101248.78;6217600;22;46134;-76
2022/10/30 04:06:01;;;;;;;;;19.25;16.00;;;;;17.50;61.09;101262.97;6218128;22;45193;-76
2022/10/30 04:08:27;;;;;;;;;15.50;15.00;;;;;17.47;61.40;101267.50;6217848;22;45187;-76
2022/10/30 04:10:52;;;;;;;;;15.50;14.00;;;;;17.40;61.29;101262.31;6217957;22;45141;-76
2022/10/30 04:13:19;;;;;;;;;15.25;14.00;;;;;17.34;61.40;101254.47;6217818;22;45505;-76
2022/10/30 04:15:47;;;;;;;;;17.50;13.50;;;;;17.34;61.42;101269.56;6217767;22;45254;-76
2022/10/30 04:18:15;;;;;;;;;17.25;17.25;;;;;17.39;61.17;101278.31;6217407;22;45256;-76
2022/10/30 04:20:41;;;;;;;;;18.00;15.75;;;;;17.31;61.22;101254.53;6217146;22;45394;-76
2022/10/30 04:23:09;;;;;;;;;23.00;20.75;;;;;17.34;61.29;101258.91;6216957;22;46304;-76
2022/10/30 04:25:34;;;;;;;;;17.75;16.25;;;;;17.23;61.58;101242.31;6217758;22;45141;-76
2022/10/30 04:28:00;;;;;;;;;24.00;21.00;;;;;17.20;61.46;101240.63;6217671;22;45147;-76
2022/10/30 04:30:26;;;;;;;;;22.25;20.75;;;;;17.19;61.92;101250.38;6217557;22;45317;-76
2022/10/30 04:32:54;;;;;;;;;26.00;24.50;;;;;17.19;62.02;101249.53;6217304;22;45975;-76
2022/10/30 04:35:21;;;;;;;;;27.00;22.75;;;;;17.25;62.01;101260.00;6190442;22;45311;-76
2022/10/30 04:37:54;;;;;;;;;28.75;26.75;;;;;17.17;62.16;101257.53;6217306;22;45102;-77
2022/10/30 04:40:21;;;;;;;;;28.75;26.50;;;;;17.12;62.25;101250.56;6217673;22;45368;-76
2022/10/30 04:42:47;;;;;;;;;32.00;25.50;;;;;17.01;61.91;101239.28;6217142;22;45507;-75
2022/10/30 04:45:12;;;;;;;;;30.00;25.75;;;;;17.12;61.96;101253.22;6217438;22;45169;-76
2022/10/30 04:47:38;;;;;;;;;49.75;40.25;;;;;17.00;62.13;101238.41;6217283;22;45146;-76
2022/10/30 04:50:03;;;;;;;;;29.75;25.00;;;;;16.96;62.19;101231.41;6217396;22;45167;-76
2022/10/30 04:52:29;;;;;;;;;28.75;26.50;;;;;16.89;62.43;101232.44;6217362;22;45217;-76
2022/10/30 04:54:54;;;;;;;;;20.00;17.00;;;;;16.91;62.04;101242.13;6217449;22;45183;-76
2022/10/30 04:57:19;;;;;;;;;18.50;17.75;;;;;16.88;62.62;101241.34;6189735;22;45297;-76
2022/10/30 04:59:44;;;;;;;;;25.50;21.75;;;;;16.85;62.93;101242.28;6190164;22;45559;-76
2022/10/30 05:02:10;;;;;;;;;21.75;20.00;;;;;16.75;62.70;101224.72;6216959;22;45470;-75
2022/10/30 05:04:35;;;;;;;;;21.00;20.00;;;;;16.78;62.72;101240.66;6190300;22;45481;-76
2022/10/30 05:07:02;;;;;;;;;16.25;15.50;;;;;16.77;62.75;101238.91;6217764;22;45337;-76
2022/10/30 05:09:28;;;;;;;;;21.75;20.00;;;;;16.80;63.24;101246.81;6217229;22;45430;-76
2022/10/30 05:11:53;;;;;;;;;23.25;21.25;;;;;16.70;63.38;101240.78;6217211;22;45336;-76
2022/10/30 05:14:18;;;;;;;;;24.00;20.75;;;;;16.68;63.05;101239.97;6189750;22;45439;-76
2022/10/30 05:16:44;;;;;;;;;20.25;20.25;;;;;16.74;63.32;101238.94;6189837;22;45311;-76
2022/10/30 05:19:09;;;;;;;;;26.75;23.25;;;;;16.65;63.26;101232.06;6217203;22;45564;-76
2022/10/30 05:21:34;;;;;;;;;21.25;20.00;;;;;16.60;63.34;101220.63;6189690;22;46104;-76
2022/10/30 05:24:00;;;;;;;;;22.00;21.00;;;;;16.66;63.52;101224.94;6217094;22;45351;-76
2022/10/30 05:26:26;;;;;;;;;21.00;20.50;;;;;16.70;63.23;101230.13;6217536;22;45201;-76
2022/10/30 05:28:51;;;;;;;;;20.25;18.50;;;;;16.66;63.22;101220.50;6217538;22;45147;-76
2022/10/30 05:31:16;;;;;;;;;25.25;24.25;;;;;16.76;63.50;101234.47;6189779;22;46422;-75
2022/10/30 05:33:42;;;;;;;;;23.00;21.25;;;;;16.68;63.71;101218.69;6217369;22;45178;-76
2022/10/30 05:36:07;;;;;;;;;20.00;18.75;;;;;16.79;63.26;101237.09;6216863;22;45143;-75
2022/10/30 05:38:33;;;;;;;;;18.75;16.50;;;;;16.81;63.50;101235.25;6217308;22;45431;-75
2022/10/30 05:40:58;;;;;;;;;18.00;15.75;;;;;16.82;63.53;101241.47;6217267;22;46224;-76
2022/10/30 05:43:23;;;;;;;;;17.25;16.25;;;;;16.83;63.33;101238.78;6217267;22;45154;-75
2022/10/30 05:45:49;;;;;;;;;18.50;14.25;;;;;16.86;63.64;101240.50;6217061;22;45103;-76
2022/10/30 05:48:14;;;;;;;;;13.25;12.75;;;;;16.87;63.37;101234.28;6217222;22;45183;-75
2022/10/30 05:50:40;;;;;;;;;19.00;16.50;;;;;16.95;63.73;101235.84;6217088;22;45397;-76
2022/10/30 05:53:05;;;;;;;;;55.25;43.25;;;;;16.93;62.96;101223.50;6217003;22;45223;-75
2022/10/30 05:55:31;;;;;;;;;72.00;53.75;;;;;16.89;63.41;101217.38;6190098;22;45309;-75
2022/10/30 05:58:00;;;;;;;;;73.75;59.25;;;;;16.96;63.58;101236.72;6217116;22;45316;-76
2022/10/30 06:00:28;;;;;;;;;41.50;31.50;;;;;17.04;63.17;101240.09;6216764;22;45296;-75
2022/10/30 06:03:00;;;;;;;;;22.75;19.75;;;;;17.01;63.41;101231.31;6216988;22;45402;-76
2022/10/30 06:05:26;;;;;;;;;21.75;20.75;;;;;16.98;63.46;101240.22;6215231;22;45234;-75
2022/10/30 06:07:55;;;;;;;;;23.50;19.50;;;;;16.96;63.43;101226.97;6217030;22;45255;-75
2022/10/30 06:10:21;;;;;;;;;22.50;20.75;;;;;16.95;63.19;101221.69;6217162;22;45411;-76
2022/10/30 06:12:57;;;;;;;;;22.75;20.50;;;;;16.93;63.53;101223.50;6217156;22;45383;-75
2022/10/30 06:15:23;;;;;;;;;25.75;22.25;;;;;16.87;63.41;101224.50;6216760;22;45260;-76
2022/10/30 06:17:49;;;;;;;;;19.75;18.25;;;;;16.88;63.56;101225.38;6216628;22;45217;-76
2022/10/30 06:20:16;;;;;;;;;24.25;22.00;;;;;16.79;63.53;101218.50;6216686;22;46404;-76
2022/10/30 06:22:41;;;;;;;;;24.00;21.75;;;;;16.78;63.40;101231.81;6216918;22;45161;-76
2022/10/30 06:25:07;;;;;;;;;6.00;4.75;;;;;16.72;63.72;101228.34;6217351;22;45493;-75
2022/10/30 06:27:35;;;;;;;;;23.25;22.00;;;;;16.78;63.61;101239.78;6217111;22;45225;-75
2022/10/30 06:30:00;;;;;;;;;24.50;22.00;;;;;16.71;63.59;101245.22;6216946;22;46384;-75
2022/10/30 06:32:26;;;;;;;;;21.75;20.75;;;;;16.66;63.84;101239.09;6216681;22;45296;-75
2022/10/30 06:34:51;;;;;;;;;25.50;22.75;;;;;16.69;63.93;101246.16;6217340;22;45283;-76
2022/10/30 06:37:17;;;;;;;;;23.50;22.75;;;;;16.67;64.01;101238.19;6217158;22;45256;-75
2022/10/30 06:39:42;;;;;;;;;22.00;20.50;;;;;16.63;64.21;101239.19;6216577;22;45470;-75
2022/10/30 06:42:08;;;;;;;;;22.25;19.50;;;;;16.64;64.23;101253.34;6216778;22;45287;-76
2022/10/30 06:44:33;;;;;;;;;25.75;25.25;;;;;16.60;64.34;101248.97;6214856;22;45388;-75
2022/10/30 06:46:58;;;;;;;;;28.25;24.50;;;;;16.57;64.53;101251.69;6216303;22;45442;-76
2022/10/30 06:49:24;;;;;;;;;24.25;23.50;;;;;16.58;64.49;101242.84;6216628;22;45348;-76
2022/10/30 06:51:50;;;;;;;;;23.50;21.50;;;;;16.60;64.13;101249.88;6216560;22;45351;-75
2022/10/30 06:54:16;;;;;;;;;23.00;22.50;;;;;16.60;64.27;101251.63;6216909;22;45182;-75
2022/10/30 06:56:41;;;;;;;;;28.00;24.75;;;;;16.65;64.31;101249.75;6217079;22;45233;-76
2022/10/30 06:59:07;;;;;;;;;24.75;22.50;;;;;16.65;64.40;101240.03;6216923;22;45161;-75
2022/10/30 07:01:32;;;;;;;;;20.00;19.25;;;;;16.70;64.32;101250.53;6216546;22;45191;-76
2022/10/30 07:03:58;;;;;;;;;24.50;22.25;;;;;16.59;64.29;101237.47;6189555;22;45122;-75
2022/10/30 07:06:23;;;;;;;;;23.00;21.00;;;;;16.68;64.15;101252.34;6216904;22;45150;-76
2022/10/30 07:08:48;;;;;;;;;26.75;23.50;;;;;16.59;64.47;101233.94;6189309;22;45922;-73
2022/10/30 07:11:14;;;;;;;;;23.00;21.00;;;;;16.67;64.65;101253.28;6216850;22;45197;-76
2022/10/30 07:13:39;;;;;;;;;24.75;21.75;;;;;16.65;64.29;101255.97;6189741;22;45201;-76
2022/10/30 07:16:04;;;;;;;;;21.50;20.25;;;;;16.67;64.80;101255.94;6216373;22;45172;-75
2022/10/30 07:18:30;;;;;;;;;24.00;21.00;;;;;16.71;64.73;101268.25;6216564;22;45366;-75
2022/10/30 07:20:55;;;;;;;;;24.75;23.00;;;;;16.73;64.70;101262.00;6188654;22;45230;-75
2022/10/30 07:23:21;;;;;;;;;27.50;25.50;;;;;16.86;64.42;101261.75;6189323;22;45463;-77
2022/10/30 07:25:47;;;;;;;;;23.75;19.50;;;;;16.77;64.58;101236.25;6216661;22;45365;-76
2022/10/30 07:28:12;;;;;;;;;26.25;21.50;;;;;16.75;64.65;101230.91;6216426;22;45315;-76
2022/10/30 07:30:37;;;;;;;;;21.25;19.75;;;;;16.93;64.61;101260.75;6216408;22;45398;-75
2022/10/30 07:33:04;;;;;;;;;19.00;18.00;;;;;16.88;64.62;101241.34;6216679;22;45478;-75
2022/10/30 07:35:31;;;;;;;;;24.50;21.50;;;;;16.97;64.25;101250.00;6216402;22;45332;-75
2022/10/30 07:38:09;;;;;;;;;24.50;23.00;;;;;16.96;64.17;101234.06;6216186;22;46122;-75
2022/10/30 07:40:35;;;;;;;;;22.75;21.00;;;;;17.04;64.42;101231.25;6188790;22;45209;-75
2022/10/30 07:43:02;;;;;;;;;20.00;19.75;;;;;17.12;64.28;101247.91;6216313;22;45166;-76
2022/10/30 07:45:28;;;;;;;;;25.25;20.75;;;;;17.04;64.01;101229.44;6215798;22;45447;-75
2022/10/30 07:47:53;;;;;;;;;22.75;20.25;;;;;17.07;64.18;101225.84;6215945;22;45490;-75
2022/10/30 07:50:19;;;;;;;;;20.50;20.00;;;;;17.15;64.09;101227.41;6216397;22;45261;-75
2022/10/30 07:52:45;;;;;;;;;21.50;20.50;;;;;17.32;63.75;101243.00;6216401;22;45293;-75
2022/10/30 07:55:11;;;;;;;;;20.75;20.50;;;;;17.36;64.14;101257.09;6216419;22;45181;-76
2022/10/30 07:57:38;;;;;;;;;22.00;21.00;;;;;17.30;64.18;101241.28;6188967;22;47111;-75
2022/10/30 08:00:09;;;;;;;;;18.00;17.00;;;;;17.47;63.86;101249.72;6217633;22;45157;-76
2022/10/30 08:02:34;;;;;;;;;18.00;16.75;;;;;17.48;63.74;101251.50;6190011;22;45270;-76
2022/10/30 08:05:00;;;;;;;;;20.25;18.50;;;;;17.52;63.80;101250.50;6190205;22;45352;-76
2022/10/30 08:07:30;;;;;;;;;16.50;15.25;;;;;17.59;63.46;101257.44;6217544;22;45205;-76
2022/10/30 08:09:55;;;;;;;;;21.00;18.00;;;;;17.73;62.82;101285.50;6217420;22;45233;-76
2022/10/30 08:12:21;;;;;;;;;17.75;14.50;;;;;17.82;62.67;101285.28;6190179;22;45290;-76
2022/10/30 08:14:46;;;;;;;;;18.25;17.00;;;;;17.88;62.46;101286.94;6190243;22;45502;-75
2022/10/30 08:17:11;;;;;;;;;24.25;19.25;;;;;17.93;62.47;101296.53;6190322;22;46996;-76
2022/10/30 08:19:37;;;;;;;;;21.00;20.25;;;;;17.99;62.83;101312.41;6217550;22;45236;-76
2022/10/30 08:22:02;;;;;;;;;22.50;20.75;;;;;17.96;62.97;101303.59;6217824;22;45271;-76
2022/10/30 08:24:28;;;;;;;;;16.75;15.75;;;;;18.00;62.50;101302.63;6217637;22;45352;-75
2022/10/30 08:26:53;;;;;;;;;23.00;20.00;;;;;17.98;62.82;101307.97;6190346;22;46565;-75
2022/10/30 08:29:18;;;;;;;;;22.00;18.25;;;;;18.01;62.57;101310.56;6190317;22;45281;-75
2022/10/30 08:31:47;;;;;;;;;22.50;21.00;;;;;18.06;62.55;101307.78;6217551;22;45374;-76
2022/10/30 08:34:12;;;;;;;;;23.75;22.75;;;;;18.16;62.15;101325.28;6217622;22;45150;-75
2022/10/30 08:36:38;;;;;;;;;21.00;20.50;;;;;18.10;62.38;101313.94;6217547;22;45303;-76
2022/10/30 08:39:03;;;;;;;;;22.50;20.75;;;;;18.17;62.08;101311.03;6217805;22;45141;-75
2022/10/30 08:41:29;;;;;;;;;25.25;22.50;;;;;18.16;62.25;101295.09;6218027;22;45101;-76
2022/10/30 08:43:54;;;;;;;;;20.75;20.00;;;;;18.33;61.98;101315.97;6217391;22;45303;-76
2022/10/30 08:46:20;;;;;;;;;21.50;20.25;;;;;18.44;61.56;101329.88;6189512;22;47050;-76
2022/10/30 08:48:45;;;;;;;;;21.25;19.50;;;;;18.48;61.26;101320.88;6217529;22;45242;-76
2022/10/30 08:51:10;;;;;;;;;22.25;19.25;;;;;18.56;61.74;101318.03;6217499;22;45166;-75
2022/10/30 08:53:36;;;;;;;;;23.75;22.75;;;;;18.66;61.57;101330.19;6217331;22;45441;-75
2022/10/30 08:56:01;;;;;;;;;25.00;22.50;;;;;18.70;61.60;101316.69;6217423;22;45368;-75
2022/10/30 08:58:26;;;;;;;;;28.75;27.00;;;;;18.73;61.01;101313.94;6189968;22;45269;-76
2022/10/30 09:00:52;;;;;;;;;22.25;19.00;;;;;18.85;61.03;101322.56;6217333;22;45789;-76
2022/10/30 09:03:17;;;;;;;;;28.50;26.50;;;;;18.84;61.06;101304.78;6190299;22;45521;-75
2022/10/30 09:05:42;;;;;;;;;29.50;26.25;;;;;18.82;60.47;101294.19;6217470;22;46034;-76
2022/10/30 09:08:08;;;;;;;;;29.25;27.00;;;;;18.87;60.87;101288.69;6189754;22;45919;-76
2022/10/30 09:10:33;;;;;;;;;19.75;17.00;;;;;18.91;60.57;101282.34;6216811;22;45375;-75
2022/10/30 09:13:01;;;;;;;;;30.00;25.25;;;;;18.94;60.62;101288.47;6190105;22;45751;-76
2022/10/30 09:15:27;;;;;;;;;21.25;21.00;;;;;19.04;60.28;101305.09;6217260;22;45517;-76
2022/10/30 09:17:57;;;;;;;;;9.50;9.50;;;;;19.20;60.07;101328.66;6190074;22;45213;-75
2022/10/30 09:20:22;;;;;;;;;20.50;19.00;;;;;19.18;59.42;101332.22;6216876;22;45384;-75
2022/10/30 09:22:48;;;;;;;;;22.00;22.00;;;;;19.22;59.72;101341.03;6217159;22;45514;-76
2022/10/30 09:25:13;;;;;;;;;16.25;14.75;;;;;19.25;59.61;101338.28;6189656;22;46037;-75
2022/10/30 09:27:39;;;;;;;;;27.25;26.25;;;;;19.26;59.66;101334.69;6217503;22;45379;-76
2022/10/30 09:30:05;;;;;;;;;28.00;25.50;;;;;19.32;59.26;101352.31;6190177;22;45301;-75
2022/10/30 09:32:30;;;;;;;;;23.25;22.50;;;;;19.37;59.52;101361.91;6190018;22;45431;-76
2022/10/30 09:34:55;;;;;;;;;23.25;21.00;;;;;19.39;59.20;101343.19;6218214;22;46292;-75
2022/10/30 09:37:22;;;;;;;;;19.00;16.00;;;;;19.42;58.74;101348.44;6217444;22;45162;-76
2022/10/30 09:39:47;;;;;;;;;19.00;18.50;;;;;19.53;58.65;101358.78;6189805;22;45142;-76
2022/10/30 09:42:25;;;;;;;;;15.25;13.75;;;;;19.60;58.37;101353.19;6189782;22;45166;-76
2022/10/30 09:44:53;;;;;;;;;17.25;15.25;;;;;19.64;57.77;101347.75;6217136;22;45350;-75
2022/10/30 09:47:44;;;;;;;;;14.50;14.50;;;;;19.58;57.48;101333.69;6189426;22;45416;-75
2022/10/30 09:50:18;;;;;;;;;24.00;19.75;;;;;19.72;57.69;101359.97;6149660;22;45557;-75
2022/10/30 09:53:05;;;;;;;;;19.25;18.75;;;;;19.74;57.89;101371.50;6217172;22;45149;-76
2022/10/30 09:55:56;;;;;;;;;16.75;15.50;;;;;19.81;57.21;101361.50;6216632;22;45398;-75
2022/10/30 09:58:59;;;;;;;;;15.75;15.25;;;;;19.76;56.93;101350.09;6190012;22;45295;-75
2022/10/30 10:02:01;;;;;;;;;11.00;10.25;;;;;19.71;56.55;101368.06;6217171;22;45264;-75
2022/10/30 10:04:38;;;;;;;;;13.25;12.50;;;;;19.62;56.72;101363.84;6143243;22;45530;-75
2022/10/30 10:07:15;;;;;;;;;17.75;15.75;;;;;19.63;56.88;101354.03;6216975;22;45435;-75
2022/10/30 10:09:42;;;;;;;;;16.00;12.67;;;;;19.63;56.32;101338.00;6189508;22;45204;-76
2022/10/30 10:12:22;;;;;;;;;9.67;9.00;;;;;19.70;56.78;101345.81;6217161;22;45145;-76
2022/10/30 10:14:48;;;;;;;;;11.67;9.33;;;;;19.80;56.32;101352.59;6216996;22;45241;-76
2022/10/30 10:17:35;;;;;;;;;15.33;13.33;;;;;19.76;55.82;101352.75;6216544;22;45390;-76
2022/10/30 10:20:04;;;;;;;;;9.00;8.00;;;;;19.85;55.74;101348.91;6216847;22;45226;-76
2022/10/30 10:22:49;;;;;;;;;13.67;10.67;;;;;19.85;55.53;101341.75;6216563;22;45187;-75
2022/10/30 10:25:18;;;;;;;;;8.00;8.00;;;;;19.98;55.07;101335.09;6217290;22;45359;-75
2022/10/30 10:27:55;;;;;;;;;13.33;10.00;;;;;19.98;55.10;101328.88;6216803;22;45670;-75
2022/10/30 10:30:23;;;;;;;;;11.67;8.33;;;;;20.07;54.86;101333.88;6216910;22;45331;-76
2022/10/30 10:32:51;;;;;;;;;9.33;8.67;;;;;20.16;54.28;101349.63;6216559;22;45168;-76
2022/10/30 10:35:30;;;;;;;;;13.33;9.33;;;;;20.20;54.27;101359.28;6217038;22;45289;-75
2022/10/30 10:38:07;;;;;;;;;8.67;7.67;;;;;20.26;54.23;101366.22;6216483;22;46327;-76
2022/10/30 10:41:02;;;;;;;;;10.00;9.33;;;;;20.26;54.22;101368.91;6217010;22;45378;-75
2022/10/30 10:43:53;;;;;;;;;8.33;7.00;;;;;20.50;53.60;101372.53;6216979;22;45193;-75
2022/10/30 10:47:14;;;;;;;;;12.67;10.00;;;;;20.81;53.38;101396.44;6216461;22;46030;-74
2022/10/30 10:50:01;;;;;;;;;12.00;11.00;;;;;20.90;52.81;101403.25;6216778;22;46562;-75
2022/10/30 10:52:48;;;;;;;;;11.00;10.00;;;;;20.98;52.95;101406.53;6216702;22;45386;-74
2022/10/30 10:55:43;;;;;;;;;11.00;9.33;;;;;21.01;52.84;101414.47;6189680;22;45331;-74
2022/10/30 10:58:30;;;;;;;;;8.67;8.67;;;;;20.86;52.28;101409.66;6185976;22;46170;-74
2022/10/30 11:01:00;;;;;;;;;12.00;10.00;;;;;20.62;52.57;101406.91;6189086;22;47679;-74
2022/10/30 11:03:44;;;;;;;;;10.33;9.33;;;;;20.45;53.14;101406.63;6216431;22;45467;-74
2022/10/30 11:06:16;;;;;;;;;12.00;9.67;;;;;20.38;53.39;101413.09;6216879;22;45316;-75
2022/10/30 11:08:42;;;;;;;;;11.67;9.33;;;;;20.34;53.28;101411.44;6216694;22;45154;-74
2022/10/30 11:11:08;;;;;;;;;12.67;11.33;;;;;20.41;53.84;101419.19;6216639;22;45444;-74
2022/10/30 11:13:35;;;;;;;;;11.00;10.00;;;;;20.80;54.74;101415.25;6216655;22;45170;-74
2022/10/30 11:16:19;;;;;;;;;13.33;12.00;;;;;21.68;53.51;101419.13;6188965;22;45356;-74
2022/10/30 11:18:50;;;;;;;;;13.67;13.67;;;;;22.57;52.87;101406.56;6216714;22;45241;-74